createdAt,value
2018-07-19T00:00:10.238Z,44.80
2018-07-19T00:02:37.881Z,45.60
2018-07-19T00:05:05.454Z,44.60
2018-07-19T00:07:33.067Z,44.80
2018-07-19T00:10:00.858Z,44.70
2018-07-19T00:12:28.410Z,44.50
2018-07-19T00:14:56.072Z,44.80
2018-07-19T00:17:23.609Z,44.70
2018-07-19T00:19:51.195Z,44.80
2018-07-19T00:22:18.741Z,45.10
2018-07-19T00:24:46.363Z,45.00
2018-07-19T00:27:14.062Z,45.60
2018-07-19T00:29:46.404Z,45.00
2018-07-19T00:32:14.212Z,45.10
2018-07-19T00:34:42.343Z,45.10
2018-07-19T00:37:10.244Z,45.20
2018-07-19T00:39:38.212Z,44.90
2018-07-19T00:42:06.260Z,45.10
2018-07-19T00:44:34.210Z,45.10
2018-07-19T00:47:02.127Z,45.00
2018-07-19T00:49:30.173Z,45.20
2018-07-19T00:51:58.423Z,44.60
2018-07-19T00:54:26.114Z,45.00
2018-07-19T00:56:54.311Z,44.90
2018-07-19T00:59:31.775Z,45.00
2018-07-19T01:01:59.752Z,44.90
2018-07-19T01:04:28.134Z,45.10
2018-07-19T01:06:56.150Z,45.10
2018-07-19T01:09:24.475Z,44.80
2018-07-19T01:11:52.437Z,44.70
2018-07-19T01:14:20.443Z,44.60
2018-07-19T01:16:49.053Z,44.50
2018-07-19T01:19:16.920Z,44.80
2018-07-19T01:21:44.945Z,44.70
2018-07-19T01:24:12.997Z,44.80
2018-07-19T01:26:40.776Z,44.80
2018-07-19T01:29:08.895Z,45.00
2018-07-19T01:31:36.749Z,44.40
2018-07-19T01:34:05.207Z,44.80
2018-07-19T01:36:33.340Z,44.80
2018-07-19T01:39:01.254Z,44.90
2018-07-19T01:42:38.008Z,44.80
2018-07-19T01:45:06.914Z,44.80
2018-07-19T01:47:34.767Z,45.00
2018-07-19T01:50:03.181Z,45.00
2018-07-19T01:52:31.122Z,45.00
2018-07-19T01:54:59.253Z,45.40
2018-07-19T01:57:27.329Z,44.70
2018-07-19T01:59:54.933Z,44.70
2018-07-19T02:02:22.830Z,44.50
2018-07-19T02:04:50.376Z,44.90
2018-07-19T02:07:17.929Z,44.80
2018-07-19T02:09:45.604Z,44.80
2018-07-19T02:12:13.154Z,45.30
2018-07-19T02:14:40.729Z,44.80
2018-07-19T02:17:08.304Z,44.30
2018-07-19T02:19:35.927Z,44.30
2018-07-19T02:22:03.538Z,44.70
2018-07-19T02:24:31.100Z,44.70
2018-07-19T02:26:58.678Z,44.80
2018-07-19T02:29:26.293Z,44.80
2018-07-19T02:31:53.856Z,44.80
2018-07-19T02:34:21.493Z,44.80
2018-07-19T02:36:49.059Z,44.80
2018-07-19T02:41:43.887Z,44.70
2018-07-19T02:44:12.510Z,44.80
2018-07-19T02:46:41.239Z,44.60
2018-07-19T02:51:36.590Z,44.80
2018-07-19T02:54:04.310Z,44.60
2018-07-19T02:56:31.946Z,44.70
2018-07-19T02:58:59.621Z,44.80
2018-07-19T03:01:27.189Z,44.50
2018-07-19T03:03:54.847Z,44.50
2018-07-19T03:06:22.476Z,44.30
2018-07-19T03:08:50.040Z,44.50
2018-07-19T03:11:17.635Z,44.50
2018-07-19T03:13:45.195Z,44.20
2018-07-19T03:16:12.797Z,44.30
2018-07-19T03:18:40.408Z,44.50
2018-07-19T03:21:07.957Z,44.40
2018-07-19T03:26:02.820Z,44.20
2018-07-19T03:28:30.492Z,44.30
2018-07-19T03:30:58.087Z,44.70
2018-07-19T03:33:26.109Z,44.70
2018-07-19T03:35:53.753Z,44.70
2018-07-19T03:38:21.371Z,44.80
2018-07-19T03:40:48.988Z,44.50
2018-07-19T03:43:16.523Z,44.60
2018-07-19T03:45:44.042Z,44.40
2018-07-19T03:48:11.689Z,44.00
2018-07-19T03:50:39.218Z,43.90
2018-07-19T03:53:06.731Z,43.50
2018-07-19T03:55:34.277Z,43.70
2018-07-19T03:58:01.797Z,43.30
2018-07-19T04:00:29.363Z,43.50
2018-07-19T04:02:57.221Z,43.40
2018-07-19T04:05:24.784Z,43.50
2018-07-19T04:07:52.335Z,43.50
2018-07-19T04:10:19.914Z,43.50
2018-07-19T04:12:47.537Z,43.50
2018-07-19T04:15:15.182Z,43.50
2018-07-19T04:17:47.709Z,44.00
2018-07-19T04:20:16.321Z,43.50
2018-07-19T04:22:43.842Z,44.40
2018-07-19T04:25:11.453Z,44.10
2018-07-19T04:27:38.921Z,44.00
2018-07-19T04:30:06.452Z,44.00
2018-07-19T04:32:34.047Z,44.10
2018-07-19T04:35:01.834Z,43.80
2018-07-19T04:37:29.371Z,45.00
2018-07-19T04:39:56.914Z,44.40
2018-07-19T04:42:24.469Z,44.20
2018-07-19T04:44:52.062Z,44.30
2018-07-19T04:47:19.606Z,44.20
2018-07-19T04:49:47.158Z,44.40
2018-07-19T04:52:14.684Z,44.70
2018-07-19T04:54:42.551Z,44.40
2018-07-19T04:57:10.099Z,44.20
2018-07-19T04:59:37.684Z,43.40
2018-07-19T05:02:05.516Z,43.40
2018-07-19T05:04:33.007Z,42.70
2018-07-19T05:07:01.067Z,42.60
2018-07-19T05:09:29.171Z,42.80
2018-07-19T05:11:56.987Z,43.90
2018-07-19T05:14:24.516Z,43.90
2018-07-19T05:16:52.380Z,43.80
2018-07-19T05:19:19.932Z,43.80
2018-07-19T05:21:47.513Z,43.70
2018-07-19T05:24:15.032Z,43.50
2018-07-19T05:26:42.546Z,43.60
2018-07-19T05:29:10.050Z,43.70
2018-07-19T05:31:37.600Z,43.60
2018-07-19T05:34:05.104Z,43.60
2018-07-19T05:36:32.651Z,44.20
2018-07-19T05:39:00.157Z,43.80
2018-07-19T05:41:27.690Z,43.80
2018-07-19T05:43:55.227Z,43.90
2018-07-19T05:46:22.764Z,43.70
2018-07-19T05:48:50.306Z,43.90
2018-07-19T05:51:17.815Z,44.00
2018-07-19T05:53:45.415Z,43.90
2018-07-19T05:56:12.942Z,43.90
2018-07-19T05:58:40.455Z,44.00
2018-07-19T06:01:07.981Z,43.90
2018-07-19T06:03:35.496Z,44.00
2018-07-19T06:06:03.000Z,43.90
2018-07-19T06:08:30.502Z,43.90
2018-07-19T06:10:58.047Z,44.00
2018-07-19T06:13:25.635Z,44.00
2018-07-19T06:15:53.148Z,44.00
2018-07-19T06:18:20.750Z,43.90
2018-07-19T06:20:48.323Z,44.00
2018-07-19T06:23:15.882Z,44.00
2018-07-19T06:25:43.419Z,43.90
2018-07-19T06:28:10.967Z,43.90
2018-07-19T06:30:38.483Z,43.90
2018-07-19T06:33:06.292Z,43.90
2018-07-19T06:35:33.809Z,43.90
2018-07-19T06:38:01.357Z,43.80
2018-07-19T06:40:28.908Z,43.80
2018-07-19T06:42:56.431Z,43.70
2018-07-19T06:45:23.939Z,43.70
2018-07-19T06:47:51.463Z,43.70
2018-07-19T06:50:18.961Z,43.70
2018-07-19T06:52:46.520Z,43.90
2018-07-19T06:55:14.088Z,43.60
2018-07-19T06:57:41.598Z,43.60
2018-07-19T07:00:09.245Z,43.40
2018-07-19T07:02:36.818Z,43.50
2018-07-19T07:05:04.651Z,43.40
2018-07-19T07:07:32.149Z,43.40
2018-07-19T07:09:59.652Z,43.40
2018-07-19T07:12:27.224Z,43.50
2018-07-19T07:14:54.738Z,43.40
2018-07-19T07:17:22.239Z,43.50
2018-07-19T07:19:49.745Z,43.40
2018-07-19T07:22:17.240Z,43.40
2018-07-19T07:24:44.938Z,43.40
2018-07-19T07:27:12.441Z,43.40
2018-07-19T07:29:40.083Z,43.50
2018-07-19T07:32:07.796Z,43.40
2018-07-19T07:34:35.492Z,43.40
2018-07-19T07:37:03.016Z,43.50
2018-07-19T07:39:30.533Z,43.40
2018-07-19T07:41:58.092Z,43.40
2018-07-19T07:44:25.607Z,43.30
2018-07-19T07:46:53.183Z,43.20
2018-07-19T07:49:20.745Z,43.10
2018-07-19T07:51:48.262Z,43.20
2018-07-19T07:54:15.813Z,43.10
2018-07-19T07:56:43.289Z,43.10
2018-07-19T07:59:10.784Z,43.00
2018-07-19T08:01:38.369Z,43.10
2018-07-19T08:04:05.880Z,43.00
2018-07-19T08:06:33.484Z,43.00
2018-07-19T08:09:01.414Z,43.00
2018-07-19T08:11:28.918Z,43.10
2018-07-19T08:13:56.421Z,43.00
2018-07-19T08:16:23.943Z,42.90
2018-07-19T08:18:51.512Z,42.90
2018-07-19T08:21:19.203Z,42.80
2018-07-19T08:23:47.001Z,42.90
2018-07-19T08:26:14.546Z,42.90
2018-07-19T08:28:42.135Z,42.90
2018-07-19T08:31:09.651Z,42.80
2018-07-19T08:33:37.181Z,42.90
2018-07-19T08:36:04.838Z,42.80
2018-07-19T08:38:32.339Z,42.80
2018-07-19T08:40:59.975Z,42.90
2018-07-19T08:43:27.481Z,42.80
2018-07-19T08:45:55.101Z,42.80
2018-07-19T08:48:22.604Z,42.70
2018-07-19T08:50:50.110Z,42.70
2018-07-19T08:53:18.238Z,42.70
2018-07-19T08:55:46.728Z,42.70
2018-07-19T08:58:14.325Z,42.70
2018-07-19T09:00:42.052Z,42.70
2018-07-19T09:03:09.584Z,42.60
2018-07-19T09:05:37.662Z,42.60
2018-07-19T09:08:05.174Z,42.50
2018-07-19T09:10:32.681Z,42.50
2018-07-19T09:13:00.189Z,42.50
2018-07-19T09:15:27.759Z,42.40
2018-07-19T09:17:55.265Z,42.40
2018-07-19T09:20:22.776Z,42.40
2018-07-19T09:25:17.597Z,42.40
2018-07-19T09:27:45.110Z,42.40
2018-07-19T09:30:12.617Z,42.40
2018-07-19T09:32:40.172Z,42.40
2018-07-19T09:35:07.630Z,42.40
2018-07-19T09:37:35.137Z,42.30
2018-07-19T09:40:02.676Z,42.30
2018-07-19T09:42:30.198Z,42.30
2018-07-19T09:44:57.793Z,42.30
2018-07-19T09:47:25.300Z,42.20
2018-07-19T09:49:52.809Z,42.20
2018-07-19T09:52:20.339Z,42.20
2018-07-19T09:54:53.351Z,42.20
2018-07-19T09:57:21.044Z,42.20
2018-07-19T09:59:48.727Z,42.20
2018-07-19T10:02:16.343Z,42.20
2018-07-19T10:04:43.901Z,42.20
2018-07-19T10:07:11.466Z,42.30
2018-07-19T10:09:38.975Z,42.20
2018-07-19T10:12:06.538Z,42.10
2018-07-19T10:14:34.044Z,42.10
2018-07-19T10:17:01.589Z,42.00
2018-07-19T10:19:29.096Z,42.20
2018-07-19T10:21:56.593Z,42.10
2018-07-19T10:24:24.307Z,42.10
2018-07-19T10:26:51.956Z,42.10
2018-07-19T10:29:19.508Z,42.00
2018-07-19T10:31:47.091Z,42.00
2018-07-19T10:34:14.694Z,42.00
2018-07-19T10:36:42.157Z,41.90
2018-07-19T10:39:10.444Z,42.50
2018-07-19T10:41:38.296Z,41.90
2018-07-19T10:44:05.787Z,41.80
2018-07-19T10:46:33.411Z,41.90
2018-07-19T10:49:00.984Z,41.90
2018-07-19T10:51:28.475Z,41.90
2018-07-19T10:53:56.002Z,41.90
2018-07-19T10:56:23.512Z,41.90
2018-07-19T10:58:51.087Z,42.00
2018-07-19T11:01:18.598Z,41.90
2018-07-19T11:03:46.112Z,41.80
2018-07-19T11:06:13.680Z,41.80
2018-07-19T11:08:41.184Z,41.90
2018-07-19T11:11:08.687Z,41.80
2018-07-19T11:13:36.183Z,41.80
2018-07-19T11:16:03.673Z,41.80
2018-07-19T11:18:31.214Z,41.80
2018-07-19T11:20:58.882Z,41.80
2018-07-19T11:23:26.429Z,41.80
2018-07-19T11:25:53.928Z,41.80
2018-07-19T11:28:21.440Z,41.80
2018-07-19T11:30:49.005Z,41.80
2018-07-19T11:33:16.535Z,41.80
2018-07-19T11:35:44.166Z,41.80
2018-07-19T11:38:11.728Z,41.80
2018-07-19T11:40:39.275Z,41.80
2018-07-19T11:43:06.843Z,41.80
2018-07-19T11:45:34.350Z,41.80
2018-07-19T11:48:01.885Z,41.80
2018-07-19T11:50:29.664Z,41.80
2018-07-19T11:55:24.421Z,42.00
2018-07-19T11:57:51.929Z,42.00
2018-07-19T12:00:19.495Z,42.00
2018-07-19T12:02:46.985Z,42.00
2018-07-19T12:05:14.480Z,42.00
2018-07-19T12:07:41.983Z,42.10
2018-07-19T12:10:09.477Z,42.10
2018-07-19T12:12:37.159Z,42.20
2018-07-19T12:15:05.029Z,42.20
2018-07-19T12:17:32.701Z,42.20
2018-07-19T12:20:00.198Z,42.40
2018-07-19T12:22:27.694Z,42.30
2018-07-19T12:24:55.205Z,42.30
2018-07-19T12:27:22.709Z,42.40
2018-07-19T12:29:50.308Z,43.00
2018-07-19T12:32:18.035Z,42.40
2018-07-19T12:34:45.529Z,42.40
2018-07-19T12:37:13.065Z,42.40
2018-07-19T12:39:40.593Z,42.50
2018-07-19T12:42:08.144Z,42.50
2018-07-19T12:44:35.652Z,42.50
2018-07-19T12:47:03.203Z,42.60
2018-07-19T12:49:30.767Z,42.60
2018-07-19T12:51:58.261Z,43.20
2018-07-19T12:54:25.752Z,42.60
2018-07-19T12:56:53.256Z,42.60
2018-07-19T12:59:20.852Z,42.60
2018-07-19T13:01:48.416Z,42.70
2018-07-19T13:04:15.919Z,42.70
2018-07-19T13:06:43.657Z,42.70
2018-07-19T13:09:11.166Z,42.70
2018-07-19T13:11:39.249Z,42.70
2018-07-19T13:14:07.004Z,42.70
2018-07-19T13:16:34.500Z,42.80
2018-07-19T13:19:02.053Z,42.80
2018-07-19T13:21:29.780Z,42.90
2018-07-19T13:23:57.407Z,43.00
2018-07-19T13:26:25.359Z,43.10
2018-07-19T13:28:52.940Z,43.10
2018-07-19T13:31:20.435Z,43.20
2018-07-19T13:33:47.965Z,43.80
2018-07-19T13:36:15.500Z,43.20
2018-07-19T13:38:43.032Z,43.30
2018-07-19T13:41:10.580Z,43.20
2018-07-19T13:43:38.273Z,43.30
2018-07-19T13:46:05.797Z,43.40
2018-07-19T13:48:33.311Z,43.40
2018-07-19T13:51:00.984Z,43.50
2018-07-19T13:53:34.831Z,43.60
2018-07-19T13:56:03.254Z,43.60
2018-07-19T13:58:31.358Z,43.80
2018-07-19T14:00:58.852Z,43.70
2018-07-19T14:03:26.385Z,43.60
2018-07-19T14:05:54.264Z,43.60
2018-07-19T14:08:22.656Z,43.60
2018-07-19T14:10:50.154Z,43.60
2018-07-19T14:13:17.868Z,43.70
2018-07-19T14:15:45.440Z,43.70
2018-07-19T14:18:13.401Z,43.70
2018-07-19T14:20:41.154Z,43.70
2018-07-19T14:23:08.730Z,43.80
2018-07-19T14:25:36.424Z,43.80
2018-07-19T14:28:04.425Z,43.80
2018-07-19T14:30:31.984Z,43.80
2018-07-19T14:32:59.719Z,43.80
2018-07-19T14:37:54.811Z,44.50
2018-07-19T14:40:22.479Z,43.80
2018-07-19T14:42:50.223Z,43.70
2018-07-19T14:45:18.112Z,43.70
2018-07-19T14:47:45.605Z,44.10
2018-07-19T14:50:13.476Z,44.10
2018-07-19T14:52:41.023Z,44.10
2018-07-19T14:55:08.863Z,43.90
2018-07-19T14:57:36.658Z,44.10
2018-07-19T15:00:04.661Z,44.20
2018-07-19T15:02:32.428Z,44.20
2018-07-19T15:05:01.573Z,44.20
2018-07-19T15:07:30.240Z,44.30
2018-07-19T15:09:57.805Z,44.30
2018-07-19T15:12:25.560Z,44.40
2018-07-19T15:14:53.228Z,44.40
2018-07-19T15:17:20.726Z,44.40
2018-07-19T15:19:48.234Z,44.30
2018-07-19T15:22:15.756Z,44.30
2018-07-19T15:24:43.248Z,44.40
2018-07-19T15:27:11.019Z,44.40
2018-07-19T15:29:38.515Z,44.40
2018-07-19T15:32:06.401Z,44.40
2018-07-19T15:34:33.909Z,44.50
2018-07-19T15:37:01.427Z,44.50
2018-07-19T15:39:28.942Z,44.50
2018-07-19T15:41:56.472Z,44.60
2018-07-19T15:44:23.986Z,44.60
2018-07-19T15:46:51.625Z,44.60
2018-07-19T15:49:19.144Z,44.60
2018-07-19T15:51:46.676Z,44.70
2018-07-19T15:54:14.266Z,44.90
2018-07-19T15:56:41.765Z,45.00
2018-07-19T15:59:09.404Z,45.00
2018-07-19T16:01:37.039Z,45.10
2018-07-19T16:04:04.496Z,45.10
2018-07-19T16:06:31.996Z,45.10
2018-07-19T16:08:59.598Z,45.10
2018-07-19T16:11:27.340Z,45.20
2018-07-19T16:13:55.037Z,45.20
2018-07-19T16:16:22.609Z,45.10
2018-07-19T16:18:50.225Z,45.60
2018-07-19T16:21:17.765Z,45.50
2018-07-19T16:23:45.312Z,45.40
2018-07-19T16:26:12.800Z,45.30
2018-07-19T16:28:40.333Z,45.30
2018-07-19T16:31:08.111Z,45.30
2018-07-19T16:33:35.754Z,45.40
2018-07-19T16:36:03.282Z,45.40
2018-07-19T16:38:30.870Z,45.40
2018-07-19T16:40:58.555Z,45.60
2018-07-19T16:43:26.116Z,45.60
2018-07-19T16:45:53.670Z,45.70
2018-07-19T16:48:21.723Z,45.80
2018-07-19T16:50:50.409Z,45.70
2018-07-19T16:53:17.983Z,45.70
2018-07-19T16:55:45.544Z,45.80
2018-07-19T16:58:13.049Z,45.60
2018-07-19T17:00:40.987Z,45.60
2018-07-19T17:03:08.522Z,45.60
2018-07-19T17:05:36.106Z,45.50
2018-07-19T17:08:03.827Z,45.40
2018-07-19T17:10:31.333Z,45.40
2018-07-19T17:12:58.829Z,45.40
2018-07-19T17:15:26.367Z,45.50
2018-07-19T17:17:54.047Z,45.60
2018-07-19T17:20:21.577Z,45.60
2018-07-19T17:22:49.825Z,45.60
2018-07-19T17:25:17.840Z,45.70
2018-07-19T17:27:45.739Z,45.70
2018-07-19T17:30:13.975Z,45.60
2018-07-19T17:32:41.975Z,45.60
2018-07-19T17:35:09.572Z,45.60
2018-07-19T17:37:37.120Z,45.60
2018-07-19T17:40:04.648Z,45.60
2018-07-19T17:42:32.237Z,45.50
2018-07-19T17:44:59.801Z,45.50
2018-07-19T17:49:54.657Z,45.40
2018-07-19T17:52:22.725Z,45.40
2018-07-19T17:54:50.866Z,45.40
2018-07-19T17:57:19.034Z,45.40
2018-07-19T17:59:46.972Z,45.40
2018-07-19T18:02:15.421Z,45.30
2018-07-19T18:04:43.097Z,45.30
2018-07-19T18:07:10.983Z,45.20
2018-07-19T18:09:39.010Z,45.20
2018-07-19T18:12:06.923Z,45.20
2018-07-19T18:14:34.914Z,45.10
2018-07-19T18:17:03.192Z,45.10
2018-07-19T18:19:31.022Z,45.10
2018-07-19T18:21:58.735Z,45.00
2018-07-19T18:24:26.460Z,45.10
2018-07-19T18:26:54.187Z,45.00
2018-07-19T18:29:22.029Z,45.20
2018-07-19T18:31:49.639Z,45.20
2018-07-19T18:34:17.223Z,45.80
2018-07-19T18:36:44.736Z,45.10
2018-07-19T18:39:12.884Z,45.00
2018-07-19T18:41:40.961Z,45.00
2018-07-19T18:44:08.814Z,45.10
2018-07-19T18:46:36.637Z,45.00
2018-07-19T18:49:04.164Z,45.10
2018-07-19T18:53:39.688Z,45.00
2018-07-19T18:56:07.205Z,45.10
2018-07-19T18:58:34.774Z,45.90
2018-07-19T19:01:02.330Z,45.30
2018-07-19T19:03:29.941Z,45.30
2018-07-19T19:05:57.475Z,45.20
2018-07-19T19:08:25.044Z,45.20
2018-07-19T19:10:52.529Z,44.50
2018-07-19T19:13:20.029Z,43.60
2018-07-19T19:15:47.536Z,44.10
2018-07-19T19:18:15.184Z,44.30
2018-07-19T19:20:42.712Z,44.60
2018-07-19T19:25:37.607Z,44.10
2018-07-19T19:28:05.179Z,43.80
2018-07-19T19:30:32.706Z,44.60
2018-07-19T19:33:00.220Z,44.50
2018-07-19T19:35:27.992Z,44.00
2018-07-19T19:37:58.111Z,44.60
2018-07-19T19:40:25.690Z,44.20
2018-07-19T19:42:53.200Z,44.80
2018-07-19T19:45:20.834Z,45.20
2018-07-19T19:50:15.677Z,44.60
2018-07-19T19:52:43.176Z,44.30
2018-07-19T19:55:10.822Z,44.90
2018-07-19T19:57:38.335Z,44.60
2018-07-19T20:00:05.923Z,44.80
2018-07-19T20:02:33.534Z,44.50
2018-07-19T20:05:01.123Z,44.40
2018-07-19T20:07:28.751Z,44.50
2018-07-19T20:09:56.383Z,44.50
2018-07-19T20:12:23.972Z,44.70
2018-07-19T20:14:51.678Z,44.50
2018-07-19T20:17:19.221Z,44.70
2018-07-19T20:19:46.932Z,44.70
2018-07-19T20:22:14.557Z,44.80
2018-07-19T20:24:42.537Z,44.70
2018-07-19T20:27:10.545Z,44.80
2018-07-19T20:29:39.237Z,44.90
2018-07-19T20:32:07.140Z,44.80
2018-07-19T20:34:34.829Z,44.80
2018-07-19T20:37:02.768Z,45.10
2018-07-19T20:39:30.457Z,45.10
2018-07-19T20:41:58.072Z,45.70
2018-07-19T20:44:25.693Z,45.10
2018-07-19T20:46:53.330Z,44.90
2018-07-19T20:49:20.976Z,45.30
2018-07-19T20:51:48.526Z,44.90
2018-07-19T20:54:16.176Z,45.70
2018-07-19T20:56:43.688Z,45.80
2018-07-19T20:59:11.208Z,46.30
2018-07-19T21:01:38.721Z,45.50
2018-07-19T21:04:06.374Z,45.60
2018-07-19T21:06:33.881Z,45.70
2018-07-19T21:09:01.671Z,45.50
2018-07-19T21:11:29.169Z,45.60
2018-07-19T21:13:56.681Z,45.60
2018-07-19T21:16:24.209Z,45.60
2018-07-19T21:18:51.740Z,45.60
2018-07-19T21:21:19.238Z,45.50
2018-07-19T21:23:46.733Z,45.50
2018-07-19T21:26:14.254Z,45.60
2018-07-19T21:28:41.749Z,45.60
2018-07-19T21:31:09.244Z,45.50
2018-07-19T21:33:36.873Z,45.50
2018-07-19T21:36:04.471Z,45.50
2018-07-19T21:38:32.006Z,45.50
2018-07-19T21:40:59.536Z,45.50
2018-07-19T21:43:27.065Z,45.50
2018-07-19T21:45:54.603Z,45.60
2018-07-19T21:48:22.115Z,45.80
2018-07-19T21:50:49.629Z,45.60
2018-07-19T21:53:17.122Z,45.70
2018-07-19T21:55:44.638Z,45.70
2018-07-19T21:58:12.158Z,45.70
2018-07-19T22:01:11.639Z,45.80
2018-07-19T22:03:39.477Z,45.80
2018-07-19T22:06:07.173Z,45.80
2018-07-19T22:08:34.710Z,45.80
2018-07-19T22:11:02.542Z,45.70
2018-07-19T22:13:30.051Z,46.40
2018-07-19T22:15:58.129Z,45.80
2018-07-19T22:18:25.630Z,45.80
2018-07-19T22:20:53.512Z,45.60
2018-07-19T22:23:21.006Z,45.60
2018-07-19T22:25:48.546Z,45.50
2018-07-19T22:28:16.042Z,45.50
2018-07-19T22:30:43.545Z,45.10
2018-07-19T22:33:11.249Z,45.20
2018-07-19T22:35:38.768Z,45.10
2018-07-19T22:38:06.312Z,45.40
2018-07-19T22:40:33.893Z,45.00
2018-07-19T22:43:01.573Z,45.20
2018-07-19T22:45:29.092Z,45.60
2018-07-19T22:47:56.685Z,45.60
2018-07-19T22:50:24.121Z,45.50
2018-07-19T22:52:51.635Z,45.50
2018-07-19T22:55:19.140Z,45.60
2018-07-19T22:57:46.680Z,45.60
2018-07-19T23:00:14.191Z,46.10
2018-07-19T23:02:41.704Z,45.50
2018-07-19T23:05:09.218Z,45.50
2018-07-19T23:07:36.719Z,45.40
2018-07-19T23:10:04.429Z,45.60
2018-07-19T23:12:31.971Z,45.70
2018-07-19T23:14:59.463Z,45.50
2018-07-19T23:17:27.077Z,45.70
2018-07-19T23:19:54.562Z,45.60
2018-07-19T23:22:22.105Z,45.70
2018-07-19T23:24:49.602Z,45.50
2018-07-19T23:27:17.127Z,45.40
2018-07-19T23:29:44.632Z,45.50
2018-07-19T23:32:12.156Z,45.60
2018-07-19T23:34:39.876Z,45.60
2018-07-19T23:37:12.689Z,45.50
2018-07-19T23:39:44.997Z,45.00
2018-07-19T23:42:17.599Z,44.90
2018-07-19T23:44:49.267Z,44.80
2018-07-19T23:47:21.456Z,45.00
2018-07-19T23:49:49.126Z,44.90
2018-07-19T23:52:16.630Z,44.80
2018-07-19T23:54:44.138Z,44.90
2018-07-19T23:57:11.649Z,45.20
2018-07-19T23:59:39.158Z,44.80
